Time;durP1;ratioP1;P1;durP2;ratioP2;P2;SDS_P1;SDS_P2;PMS_P1;PMS_P2;Temp;Humidity;BMP_temperature;BMP_pressure;BME280_temperature;BME280_humidity;BME280_pressure;Samples;Min_cycle;Max_cycle;Signal;HPM_P1;HPM_P2
2021/06/27 00:01:14;;;;;;;24.92;17.33;;;;;;;22.60;48.88;101643.47;4995476;28;127182;-71
2021/06/27 00:03:41;;;;;;;23.00;16.75;;;;;;;22.58;48.90;101648.13;5012309;28;118279;-70
2021/06/27 00:06:09;;;;;;;24.08;16.92;;;;;;;22.53;48.88;101647.69;5007383;28;118271;-70
2021/06/27 00:08:37;;;;;;;23.65;17.80;;;;;;;22.50;49.16;101642.53;4995170;28;124250;-70
2021/06/27 00:11:06;;;;;;;24.48;16.63;;;;;;;22.47;49.12;101642.78;5020738;28;123040;-70
2021/06/27 00:13:36;;;;;;;22.92;16.75;;;;;;;22.45;49.18;101645.63;4990076;28;119342;-70
2021/06/27 00:16:04;;;;;;;27.70;17.08;;;;;;;22.43;49.25;101652.97;4995437;28;119015;-70
2021/06/27 00:18:31;;;;;;;23.58;16.73;;;;;;;22.42;49.21;101650.41;4995106;28;124797;-70
2021/06/27 00:21:02;;;;;;;22.77;16.45;;;;;;;22.40;49.53;101652.38;5023348;27;122776;-70
2021/06/27 00:23:32;;;;;;;22.52;16.70;;;;;;;22.39;49.60;101656.06;5005331;28;119382;-70
2021/06/27 00:26:00;;;;;;;27.63;17.63;;;;;;;22.37;49.72;101652.63;4993976;28;120298;-70
2021/06/27 00:28:27;;;;;;;22.77;16.02;;;;;;;22.35;49.67;101645.50;5023065;28;122956;-70
2021/06/27 00:30:54;;;;;;;25.10;17.17;;;;;;;22.33;49.76;101642.06;4996832;28;123707;-70
2021/06/27 00:33:22;;;;;;;22.60;16.77;;;;;;;22.33;49.80;101646.63;4995566;28;119715;-70
2021/06/27 00:35:50;;;;;;;23.42;16.90;;;;;;;22.30;49.91;101645.03;4995783;28;119752;-70
2021/06/27 00:38:17;;;;;;;25.80;17.63;;;;;;;22.30;50.11;101646.88;5003890;28;123141;-70
2021/06/27 00:40:45;;;;;;;23.13;17.05;;;;;;;22.28;50.11;101644.31;4990811;28;124097;-70
2021/06/27 00:43:13;;;;;;;24.52;17.35;;;;;;;22.27;50.18;101647.97;4995775;28;120730;-70
2021/06/27 00:45:40;;;;;;;23.42;16.33;;;;;;;22.26;50.12;101640.84;4994591;28;120545;-70
2021/06/27 00:48:08;;;;;;;24.40;17.30;;;;;;;22.25;50.30;101649.94;4992459;28;124418;-70
2021/06/27 00:50:37;;;;;;;26.75;17.73;;;;;;;22.24;50.36;101637.41;4992327;28;123930;-70
2021/06/27 00:53:05;;;;;;;24.88;17.67;;;;;;;22.22;50.25;101639.38;4993903;28;119686;-70
2021/06/27 00:55:34;;;;;;;24.75;16.70;;;;;;;22.20;50.40;101635.94;4994510;28;118188;-70
2021/06/27 00:58:01;;;;;;;24.92;17.13;;;;;;;22.17;50.38;101633.50;4991492;28;125195;-70
2021/06/27 01:00:31;;;;;;;24.52;16.75;;;;;;;22.13;50.59;101629.31;4993085;28;123148;-70
2021/06/27 01:03:00;;;;;;;24.35;17.38;;;;;;;22.09;50.59;101634.09;5008264;28;118713;-70
2021/06/27 01:05:30;;;;;;;24.15;17.48;;;;;;;22.06;50.74;101638.94;5011268;28;117925;-70
2021/06/27 01:07:58;;;;;;;25.17;16.80;;;;;;;22.03;50.82;101625.66;4990106;28;124769;-70
2021/06/27 01:10:26;;;;;;;24.27;17.23;;;;;;;22.01;50.90;101622.25;4992081;28;123960;-70
2021/06/27 01:12:54;;;;;;;22.77;16.63;;;;;;;21.99;50.87;101627.75;4989494;28;119206;-70
2021/06/27 01:15:23;;;;;;;22.70;16.23;;;;;;;21.96;50.82;101626.19;5004224;28;118296;-70
2021/06/27 01:17:54;;;;;;;23.38;16.35;;;;;;;21.94;51.08;101630.84;5001398;28;123342;-70
2021/06/27 01:20:25;;;;;;;22.75;16.00;;;;;;;21.92;51.10;101632.78;5003139;28;123188;-70
2021/06/27 01:22:53;;;;;;;23.60;16.48;;;;;;;21.92;51.21;101632.78;4990219;28;119965;-70
2021/06/27 01:25:24;;;;;;;22.02;16.27;;;;;;;21.90;51.08;101634.75;4993594;28;119159;-70
2021/06/27 01:27:53;;;;;;;23.00;16.38;;;;;;;21.89;51.35;101633.03;4994344;28;124955;-70
2021/06/27 01:30:21;;;;;;;22.75;15.77;;;;;;;21.88;51.24;101625.91;4992343;28;123310;-70
2021/06/27 01:32:50;;;;;;;22.52;16.05;;;;;;;21.86;51.37;101622.50;5003595;28;119190;-70
2021/06/27 01:35:20;;;;;;;22.70;16.35;;;;;;;21.85;51.42;101620.78;4989078;28;118963;-70
2021/06/27 01:37:51;;;;;;;23.63;15.70;;;;;;;21.84;51.42;101624.44;4988314;28;123890;-70
2021/06/27 01:40:24;;;;;;;24.05;16.48;;;;;;;21.83;51.65;101617.38;4992231;28;124105;-70
2021/06/27 01:43:05;;;;;;;22.10;15.82;;;;;;;21.80;51.55;101631.09;4993199;28;96838;-70
2021/06/27 01:45:32;;;;;;;24.52;17.00;;;;;;;21.79;51.83;101632.06;5002024;28;118782;-70
2021/06/27 01:48:02;;;;;;;24.63;16.90;;;;;;;21.77;51.82;101629.50;4991987;28;124243;-70
2021/06/27 01:50:31;;;;;;;23.73;16.13;;;;;;;21.73;51.75;101610.97;4994449;28;125005;-70
2021/06/27 01:52:59;;;;;;;24.15;16.90;;;;;;;21.70;51.86;101617.47;4990832;28;120531;-70
2021/06/27 01:55:27;;;;;;;25.17;17.33;;;;;;;21.66;52.07;101620.53;4991906;28;117851;-70
2021/06/27 01:57:54;;;;;;;26.65;16.95;;;;;;;21.60;52.11;101610.25;4994655;28;123989;-70
2021/06/27 02:00:24;;;;;;;23.77;16.40;;;;;;;21.53;52.35;101613.44;4991026;28;124092;-70
2021/06/27 02:02:52;;;;;;;24.67;17.00;;;;;;;21.50;52.41;101623.59;4995237;28;119597;-70
2021/06/27 02:05:19;;;;;;;21.75;15.68;;;;;;;21.45;52.39;101618.56;4992584;28;119002;-70
2021/06/27 02:07:46;;;;;;;23.70;16.17;;;;;;;21.44;52.43;101619.56;4994581;28;124612;-70
2021/06/27 02:10:19;;;;;;;23.90;16.48;;;;;;;21.43;52.42;101620.47;5005926;28;123995;-70
2021/06/27 02:12:47;;;;;;;23.55;16.38;;;;;;;21.45;52.44;101618.56;4991874;28;119311;-68
2021/06/27 02:15:14;;;;;;;24.77;16.20;;;;;;;21.45;52.48;101621.25;5022061;28;118993;-69
2021/06/27 02:18:08;;;;;;;23.42;15.73;;;;;;;21.43;52.51;101609.69;4993136;28;124906;-70
2021/06/27 02:20:36;;;;;;;22.48;15.32;;;;;;;21.43;52.32;101608.84;4986078;28;124155;-70
2021/06/27 02:23:05;;;;;;;23.10;16.00;;;;;;;21.40;52.39;101615.34;4996876;28;120197;-70
2021/06/27 02:25:33;;;;;;;21.52;15.23;;;;;;;21.39;52.51;101619.00;4995742;28;120923;-70
2021/06/27 02:28:00;;;;;;;24.67;15.82;;;;;;;21.40;52.34;101620.75;4998665;28;123435;-70
2021/06/27 02:30:27;;;;;;;24.92;16.35;;;;;;;21.38;52.48;101625.41;4991385;28;123898;-69
2021/06/27 02:32:54;;;;;;;22.55;15.18;;;;;;;21.36;52.50;101624.63;4992093;28;119622;-70
2021/06/27 02:35:21;;;;;;;24.20;15.45;;;;;;;21.34;52.69;101627.47;4993821;28;118687;-70
2021/06/27 02:37:48;;;;;;;25.33;16.02;;;;;;;21.33;52.74;101624.91;5019354;28;123086;-69
2021/06/27 02:40:16;;;;;;;23.67;15.90;;;;;;;21.31;52.79;101626.84;4993834;28;122737;-70
2021/06/27 02:42:43;;;;;;;22.00;15.57;;;;;;;21.30;52.79;101630.50;4990659;28;119329;-69
2021/06/27 02:45:11;;;;;;;24.95;15.77;;;;;;;21.29;52.69;101628.81;4988504;28;119476;-70
2021/06/27 02:47:39;;;;;;;23.10;15.15;;;;;;;21.26;52.58;101618.25;4988545;28;124522;-70
2021/06/27 02:50:11;;;;;;;21.92;15.48;;;;;;;21.24;52.89;101614.84;4991025;28;124185;-70
2021/06/27 02:52:39;;;;;;;23.30;15.45;;;;;;;21.19;52.80;101607.97;4991416;28;118606;-68
2021/06/27 02:55:08;;;;;;;22.13;15.07;;;;;;;21.16;52.65;101610.91;4992441;28;119071;-71
2021/06/27 02:57:36;;;;;;;23.35;15.02;;;;;;;21.13;52.93;101607.56;5000375;28;123113;-70
2021/06/27 03:00:06;;;;;;;23.45;16.02;;;;;;;21.11;52.98;101605.00;4995955;28;124165;-70
2021/06/27 03:02:33;;;;;;;22.13;15.52;;;;;;;21.09;53.11;101596.19;4990690;28;119462;-70
2021/06/27 03:05:00;;;;;;;23.25;15.20;;;;;;;21.07;53.24;101587.34;4989831;28;119749;-70
2021/06/27 03:07:27;;;;;;;21.25;15.00;;;;;;;21.07;53.13;101598.13;4988078;28;123907;-70
2021/06/27 03:09:54;;;;;;;24.60;15.68;;;;;;;21.04;53.35;101593.00;4987141;28;124003;-70
2021/06/27 03:12:22;;;;;;;22.95;15.52;;;;;;;21.03;53.39;101585.88;4987695;28;121592;-70
2021/06/27 03:14:49;;;;;;;22.42;16.05;;;;;;;21.00;53.43;101592.38;4986901;28;119982;-70
2021/06/27 03:17:16;;;;;;;22.95;15.00;;;;;;;21.00;53.54;101596.88;4987903;28;124533;-70
2021/06/27 03:19:43;;;;;;;23.83;15.75;;;;;;;20.99;53.54;101595.19;4986679;28;124617;-70
2021/06/27 03:22:10;;;;;;;24.92;15.48;;;;;;;20.96;53.62;101590.91;4990656;28;119604;-71
2021/06/27 03:24:37;;;;;;;22.02;15.10;;;;;;;20.93;53.52;101590.28;4992041;28;119076;-71
2021/06/27 03:27:05;;;;;;;24.77;16.38;;;;;;;20.90;53.80;101593.19;4990003;28;124135;-70
2021/06/27 03:29:32;;;;;;;22.92;16.15;;;;;;;20.87;53.90;101601.50;4998706;28;124599;-70
2021/06/27 03:32:00;;;;;;;24.73;16.02;;;;;;;20.84;54.11;101597.22;4989295;28;119386;-70
2021/06/27 03:34:28;;;;;;;25.23;16.33;;;;;;;20.79;54.12;101594.91;4994131;28;119820;-70
2021/06/27 03:36:55;;;;;;;22.67;15.38;;;;;;;20.77;54.25;101595.97;4994742;28;124466;-70
2021/06/27 03:39:23;;;;;;;22.67;16.33;;;;;;;20.74;54.36;101591.69;4988567;28;124473;-70
2021/06/27 03:41:53;;;;;;;27.25;16.50;;;;;;;20.72;54.47;101588.25;4989082;28;120046;-70
2021/06/27 03:44:21;;;;;;;27.13;16.17;;;;;;;20.70;54.51;101584.81;4989260;28;119292;-70
2021/06/27 03:46:48;;;;;;;25.08;16.35;;;;;;;20.69;54.62;101593.84;4990312;28;124114;-71
2021/06/27 03:49:15;;;;;;;25.40;16.20;;;;;;;20.67;54.62;101585.03;5001884;28;123037;-70
2021/06/27 03:51:43;;;;;;;27.45;17.63;;;;;;;20.68;54.83;101585.91;5021335;28;118727;-71
2021/06/27 03:54:10;;;;;;;24.42;16.35;;;;;;;20.69;54.93;101599.25;5017334;28;118874;-70
2021/06/27 03:56:38;;;;;;;24.65;16.55;;;;;;;20.70;54.99;101594.72;4998330;28;124589;-71
2021/06/27 03:59:06;;;;;;;23.58;16.30;;;;;;;20.70;54.94;101595.59;4991846;28;124188;-70
2021/06/27 04:01:33;;;;;;;24.30;16.63;;;;;;;20.72;55.23;101599.03;4997093;28;120951;-70
2021/06/27 04:04:01;;;;;;;25.85;16.23;;;;;;;20.76;54.97;101597.81;4999353;28;121429;-70
2021/06/27 04:06:29;;;;;;;26.27;16.02;;;;;;;20.79;55.23;101594.91;5007879;28;122963;-70
2021/06/27 04:08:56;;;;;;;23.10;15.82;;;;;;;20.83;55.09;101589.25;4990810;28;123959;-68
2021/06/27 04:11:23;;;;;;;22.45;15.23;;;;;;;20.85;55.11;101576.53;4993459;28;119452;-70
2021/06/27 04:13:51;;;;;;;25.38;16.80;;;;;;;20.88;55.33;101568.22;4992662;28;119489;-70
2021/06/27 04:16:18;;;;;;;23.88;16.10;;;;;;;20.91;55.33;101568.00;4995080;28;124131;-70
2021/06/27 04:18:45;;;;;;;24.60;15.63;;;;;;;20.94;55.61;101565.06;4994929;28;123650;-70
2021/06/27 04:21:12;;;;;;;23.25;16.55;;;;;;;20.96;55.52;101563.09;4999721;28;119700;-70
2021/06/27 04:23:40;;;;;;;23.65;16.33;;;;;;;21.00;55.69;101564.56;4999376;28;117731;-70
2021/06/27 04:26:07;;;;;;;25.55;16.83;;;;;;;21.04;55.63;101571.47;5011921;28;123248;-70
2021/06/27 04:28:35;;;;;;;26.20;16.08;;;;;;;21.06;55.79;101569.50;4993720;28;124395;-70
2021/06/27 04:31:03;;;;;;;25.52;16.95;;;;;;;21.11;55.73;101572.66;4995401;28;119308;-70
2021/06/27 04:33:30;;;;;;;24.88;17.00;;;;;;;21.14;55.82;101567.06;4993395;28;118440;-69
2021/06/27 04:35:58;;;;;;;28.00;17.67;;;;;;;21.17;55.82;101566.81;4992369;28;124345;-70
2021/06/27 04:38:26;;;;;;;24.48;16.08;;;;;;;21.22;55.94;101562.91;4996862;28;124048;-70
2021/06/27 04:40:54;;;;;;;25.25;16.35;;;;;;;21.26;55.76;101558.97;4997963;28;117853;-70
2021/06/27 04:43:21;;;;;;;24.02;16.40;;;;;;;21.31;55.85;101562.19;4996463;28;119005;-70
2021/06/27 04:45:49;;;;;;;24.60;16.40;;;;;;;21.34;55.74;101572.69;5001192;28;123601;-69
2021/06/27 04:48:16;;;;;;;23.80;16.08;;;;;;;21.37;55.73;101561.69;4996654;28;123887;-70
2021/06/27 04:50:46;;;;;;;24.15;15.95;;;;;;;21.40;55.85;101566.84;5021349;28;119086;-70
2021/06/27 04:53:17;;;;;;;23.52;16.05;;;;;;;21.43;55.83;101550.41;5021227;28;119846;-70
2021/06/27 04:55:45;;;;;;;25.25;16.42;;;;;;;21.44;55.70;101546.78;4999068;28;125243;-70
2021/06/27 04:58:12;;;;;;;24.98;15.75;;;;;;;21.46;55.62;101550.22;4995805;28;124637;-70
2021/06/27 05:00:41;;;;;;;25.08;16.77;;;;;;;21.48;55.58;101548.25;4996624;28;119523;-70
2021/06/27 05:03:08;;;;;;;26.70;16.58;;;;;;;21.47;55.60;101535.72;5006638;28;119638;-70
2021/06/27 05:05:35;;;;;;;24.73;16.02;;;;;;;21.49;55.97;101539.19;5021246;28;124775;-70
2021/06/27 05:08:03;;;;;;;25.58;17.42;;;;;;;21.51;55.87;101536.34;5000470;28;123917;-70
2021/06/27 05:10:30;;;;;;;26.40;16.48;;;;;;;21.52;55.80;101538.94;4998776;28;119902;-70
2021/06/27 05:12:58;;;;;;;25.13;16.92;;;;;;;21.56;55.97;101540.38;4996365;28;118522;-70
2021/06/27 05:15:25;;;;;;;23.83;16.83;;;;;;;21.58;55.95;101538.41;4990100;28;124133;-70
2021/06/27 05:17:52;;;;;;;25.27;16.70;;;;;;;21.63;55.83;101539.91;4996117;28;123855;-70
2021/06/27 05:20:19;;;;;;;26.23;17.23;;;;;;;21.66;55.88;101528.88;4998132;28;119164;-70
2021/06/27 05:22:46;;;;;;;24.25;16.55;;;;;;;21.68;55.79;101521.50;5000624;28;118884;-70
2021/06/27 05:25:14;;;;;;;23.35;16.05;;;;;;;21.73;55.65;101527.38;4994033;28;124328;-70
2021/06/27 05:27:42;;;;;;;23.48;15.80;;;;;;;21.76;55.88;101529.84;4996733;28;123746;-69
2021/06/27 05:30:11;;;;;;;23.88;16.00;;;;;;;21.82;55.85;101523.94;4996366;28;119155;-70
2021/06/27 05:32:39;;;;;;;24.60;16.83;;;;;;;21.87;55.88;101519.03;5004787;28;118308;-70
2021/06/27 05:35:06;;;;;;;24.52;16.13;;;;;;;21.93;55.76;101517.69;4996137;28;124082;-70
2021/06/27 05:37:33;;;;;;;22.85;16.25;;;;;;;21.99;55.72;101519.00;4994006;28;123899;-70
2021/06/27 05:40:02;;;;;;;22.77;15.68;;;;;;;22.03;55.67;101520.47;4992920;28;119739;-70
2021/06/27 05:42:29;;;;;;;24.45;15.63;;;;;;;22.10;55.65;101527.06;4992367;28;120020;-69
2021/06/27 05:44:56;;;;;;;21.77;14.93;;;;;;;22.16;55.55;101531.94;5000603;28;123843;-70
2021/06/27 05:47:24;;;;;;;23.02;15.57;;;;;;;22.22;55.56;101531.44;4996030;28;124171;-70
2021/06/27 05:49:51;;;;;;;21.33;14.32;;;;;;;22.28;55.58;101525.56;4998768;28;119156;-70
2021/06/27 05:52:18;;;;;;;22.95;15.23;;;;;;;22.34;55.49;101530.44;4995890;28;119302;-70
2021/06/27 05:54:45;;;;;;;22.20;15.02;;;;;;;22.43;55.45;101538.75;4994043;28;124568;-70
2021/06/27 05:57:12;;;;;;;22.25;15.05;;;;;;;22.51;55.63;101529.03;4992373;28;123260;-70
2021/06/27 05:59:39;;;;;;;20.65;14.82;;;;;;;22.61;55.42;101534.50;5001084;28;119702;-70
2021/06/27 06:02:07;;;;;;;21.23;14.98;;;;;;;22.69;55.22;101531.97;4990896;28;118959;-70
2021/06/27 06:04:35;;;;;;;23.20;14.52;;;;;;;22.77;55.01;101527.75;5000289;28;125338;-71
2021/06/27 06:07:02;;;;;;;22.02;15.27;;;;;;;22.85;54.96;101533.34;4994678;28;124656;-71
2021/06/27 06:09:29;;;;;;;21.85;13.98;;;;;;;22.92;55.04;101535.41;4989891;28;119442;-71
2021/06/27 06:11:56;;;;;;;20.05;14.48;;;;;;;22.99;54.69;101541.13;4992883;28;118868;-71
2021/06/27 06:14:24;;;;;;;18.75;13.23;;;;;;;23.04;54.51;101538.94;5015875;28;123755;-71
2021/06/27 06:16:51;;;;;;;19.75;13.32;;;;;;;23.09;54.56;101542.09;4998935;28;123860;-71
2021/06/27 06:19:20;;;;;;;19.35;14.15;;;;;;;23.17;54.63;101548.66;5005223;28;119818;-71
2021/06/27 06:21:47;;;;;;;21.40;13.45;;;;;;;23.28;54.73;101540.47;5004723;28;118481;-71
2021/06/27 06:24:16;;;;;;;19.52;13.20;;;;;;;23.40;54.69;101539.38;5007716;28;123911;-71
2021/06/27 06:26:44;;;;;;;18.35;13.00;;;;;;;23.55;54.62;101537.16;5007096;28;124187;-71
2021/06/27 06:29:12;;;;;;;17.83;13.77;;;;;;;23.70;54.33;101540.34;5006257;28;119528;-71
2021/06/27 06:31:39;;;;;;;19.90;12.90;;;;;;;23.83;54.15;101541.00;5003847;28;120012;-71
2021/06/27 06:34:06;;;;;;;16.85;12.20;;;;;;;23.96;53.45;101534.44;4990309;28;123869;-72
2021/06/27 06:36:34;;;;;;;19.30;12.45;;;;;;;24.09;53.62;101535.03;5001577;28;124068;-71
2021/06/27 06:39:02;;;;;;;15.80;11.57;;;;;;;24.24;53.25;101533.66;5001267;28;118514;-71
2021/06/27 06:41:29;;;;;;;15.90;11.13;;;;;;;24.39;53.02;101527.78;4992476;28;119376;-71
2021/06/27 06:43:57;;;;;;;14.95;11.55;;;;;;;24.55;52.93;101530.81;5007057;28;123251;-71
2021/06/27 06:46:24;;;;;;;15.15;11.75;;;;;;;24.70;52.41;101530.38;5000482;28;124748;-71
2021/06/27 06:48:55;;;;;;;15.52;11.10;;;;;;;24.81;52.37;101531.06;5005752;28;120108;-71
2021/06/27 06:51:26;;;;;;;16.77;11.77;;;;;;;24.93;52.30;101529.03;4997016;28;119771;-71
2021/06/27 06:53:53;;;;;;;15.60;11.25;;;;;;;25.04;51.60;101537.00;5019363;28;124390;-71
2021/06/27 06:56:21;;;;;;;15.07;11.32;;;;;;;25.13;51.34;101526.25;5006916;28;123855;-72
2021/06/27 06:58:48;;;;;;;15.52;11.32;;;;;;;25.21;51.17;101526.41;5002560;28;119299;-71
2021/06/27 07:01:17;;;;;;;15.35;10.95;;;;;;;25.27;50.87;101524.97;4995082;28;119255;-72
2021/06/27 07:03:45;;;;;;;15.77;11.40;;;;;;;25.30;50.88;101528.25;5008823;28;123270;-72
2021/06/27 07:06:13;;;;;;;17.30;11.27;;;;;;;25.34;50.70;101521.53;5001191;28;124743;-71
2021/06/27 07:08:40;;;;;;;13.80;10.88;;;;;;;25.37;50.40;101532.09;4998732;28;119466;-72
2021/06/27 07:11:07;;;;;;;13.68;10.70;;;;;;;25.41;50.13;101525.34;5009299;28;118975;-71
2021/06/27 07:13:34;;;;;;;14.35;10.18;;;;;;;25.47;50.62;101520.31;5005809;28;124868;-72
2021/06/27 07:16:02;;;;;;;14.68;10.65;;;;;;;25.56;50.39;101524.84;5025128;28;122805;-72
2021/06/27 07:18:29;;;;;;;15.50;10.52;;;;;;;25.66;50.44;101528.38;4985910;28;120373;-71
2021/06/27 07:20:57;;;;;;;15.23;10.85;;;;;;;25.75;49.88;101541.03;4985754;28;119781;-71
2021/06/27 07:23:24;;;;;;;14.35;10.60;;;;;;;25.84;49.77;101545.56;5003988;28;123985;-71
2021/06/27 07:25:51;;;;;;;14.65;10.93;;;;;;;25.92;49.24;101542.09;5006891;28;124679;-71
2021/06/27 07:28:18;;;;;;;13.80;10.13;;;;;;;25.97;49.56;101544.34;4992857;28;119476;-72
2021/06/27 07:30:46;;;;;;;14.27;10.32;;;;;;;26.06;49.45;101538.00;4997028;28;119405;-72
2021/06/27 07:33:14;;;;;;;15.88;10.07;;;;;;;26.18;49.27;101542.22;5011720;28;124161;-72
2021/06/27 07:35:42;;;;;;;13.77;9.93;;;;;;;26.31;49.07;101540.94;5005326;28;124367;-72
2021/06/27 07:38:09;;;;;;;14.80;10.10;;;;;;;26.37;48.88;101529.47;5017770;28;118658;-72
2021/06/27 07:40:36;;;;;;;12.82;9.57;;;;;;;26.45;48.52;101536.81;5011803;28;119008;-72
2021/06/27 07:43:04;;;;;;;13.05;9.77;;;;;;;26.53;48.66;101540.47;5011024;28;124093;-71
2021/06/27 07:45:31;;;;;;;12.25;9.35;;;;;;;26.60;48.31;101536.16;4995731;28;123933;-72
2021/06/27 07:48:00;;;;;;;11.88;8.95;;;;;;;26.69;48.22;101538.94;5002573;28;119654;-72
2021/06/27 07:50:28;;;;;;;11.93;9.50;;;;;;;26.75;48.18;101538.31;5006060;28;119357;-72
2021/06/27 07:52:55;;;;;;;12.48;8.90;;;;;;;26.84;48.57;101545.50;5013229;28;124399;-72
2021/06/27 07:55:23;;;;;;;12.55;9.05;;;;;;;26.96;47.77;101540.69;4999680;28;123833;-72
2021/06/27 07:57:51;;;;;;;11.65;9.55;;;;;;;27.07;47.22;101536.81;5005172;28;119409;-72
2021/06/27 08:00:18;;;;;;;11.50;9.10;;;;;;;27.13;46.80;101530.75;4999477;28;119085;-72
2021/06/27 08:02:46;;;;;;;12.63;9.20;;;;;;;27.19;47.10;101535.53;5010450;28;123928;-71
2021/06/27 08:05:18;;;;;;;10.55;8.52;;;;;;;27.25;46.75;101528.59;5004469;28;123739;-71
2021/06/27 08:07:45;;;;;;;13.52;8.70;;;;;;;27.31;46.75;101537.00;5001952;28;121273;-72
2021/06/27 08:10:13;;;;;;;13.63;9.20;;;;;;;27.37;46.38;101533.63;5003945;28;119928;-72
2021/06/27 08:12:41;;;;;;;11.77;9.25;;;;;;;27.42;46.20;101530.41;5003682;28;124465;-72
2021/06/27 08:15:17;;;;;;;11.32;8.80;;;;;;;27.46;46.34;101520.91;5008830;28;123435;-72
2021/06/27 08:17:47;;;;;;;12.05;8.95;;;;;;;27.51;46.52;101539.47;4993215;28;119645;-72
2021/06/27 08:20:14;;;;;;;12.85;8.98;;;;;;;27.58;46.74;101524.19;5008928;28;119124;-72
2021/06/27 08:22:42;;;;;;;12.93;9.73;;;;;;;27.67;46.57;101533.22;5009442;28;124368;-72
2021/06/27 08:25:10;;;;;;;11.68;8.50;;;;;;;27.76;46.39;101533.13;4995996;28;123904;-72
2021/06/27 08:27:38;;;;;;;12.38;8.77;;;;;;;27.87;46.33;101533.81;5016493;28;119739;-73
2021/06/27 08:30:09;;;;;;;12.05;9.80;;;;;;;27.96;46.73;101535.56;5010761;28;118142;-72
2021/06/27 08:32:42;;;;;;;11.93;9.43;;;;;;;28.07;46.71;101529.81;5009290;28;124012;-72
2021/06/27 08:35:16;;;;;;;13.73;10.00;;;;;;;28.19;46.02;101534.94;5027047;28;122910;-72
2021/06/27 08:37:44;;;;;;;11.40;9.02;;;;;;;28.28;45.89;101531.19;5010575;28;119340;-72
2021/06/27 08:40:14;;;;;;;12.10;9.35;;;;;;;28.33;46.13;101534.25;5010870;28;118375;-72
2021/06/27 08:42:41;;;;;;;12.35;9.43;;;;;;;28.38;45.88;101531.88;5008239;27;123564;-72
2021/06/27 08:45:10;;;;;;;12.75;8.65;;;;;;;28.42;45.58;101530.50;4989505;28;124692;-72
2021/06/27 08:47:38;;;;;;;11.02;8.77;;;;;;;28.49;45.75;101539.72;5010885;28;119477;-73
2021/06/27 08:50:09;;;;;;;14.43;9.57;;;;;;;28.53;45.90;101532.94;4998364;28;119231;-72
2021/06/27 08:52:36;;;;;;;11.15;9.05;;;;;;;28.59;45.19;101522.38;5009479;28;124780;-72
2021/06/27 08:55:04;;;;;;;12.98;9.10;;;;;;;28.62;45.34;101522.03;5003237;28;123876;-72
2021/06/27 08:57:31;;;;;;;11.73;9.00;;;;;;;28.66;45.47;101518.78;5009185;28;119018;-72
2021/06/27 08:59:58;;;;;;;11.27;8.88;;;;;;;28.71;45.28;101515.56;5003142;28;120763;-72
2021/06/27 09:02:26;;;;;;;12.43;9.40;;;;;;;28.74;44.90;101515.19;5000237;28;123973;-72
2021/06/27 09:04:54;;;;;;;11.45;9.02;;;;;;;28.76;45.01;101507.69;5007316;28;123954;-72
2021/06/27 09:07:25;;;;;;;11.15;9.00;;;;;;;28.82;45.08;101506.16;5006113;28;119123;-73
2021/06/27 09:09:53;;;;;;;10.80;8.68;;;;;;;28.85;45.12;101506.66;4999538;28;119675;-72
2021/06/27 09:12:21;;;;;;;11.15;8.70;;;;;;;28.94;44.70;101515.69;5008140;28;123870;-72
2021/06/27 09:14:48;;;;;;;10.63;8.98;;;;;;;29.01;44.85;101507.66;5020898;28;124285;-72
2021/06/27 09:17:24;;;;;;;11.13;8.98;;;;;;;29.11;44.47;101511.03;4997004;28;119267;-72
2021/06/27 09:19:51;;;;;;;11.57;9.25;;;;;;;29.22;44.56;101498.94;5007797;28;118682;-72
2021/06/27 09:22:40;;;;;;;11.57;8.63;;;;;;;29.30;44.36;101499.75;5008404;28;124045;-72
2021/06/27 09:25:21;;;;;;;10.18;8.18;;;;;;;29.40;43.89;101504.16;5008085;28;123960;-72
2021/06/27 09:27:57;;;;;;;9.77;8.25;;;;;;;29.41;43.39;101494.94;5009974;28;119217;-72
2021/06/27 09:30:26;;;;;;;10.45;8.18;;;;;;;29.42;43.61;101486.59;5007438;28;118958;-71
2021/06/27 09:32:56;;;;;;;11.68;8.57;;;;;;;29.48;43.83;101496.78;5010906;28;124135;-72
2021/06/27 09:35:44;;;;;;;10.25;8.90;;;;;;;29.55;43.54;101498.78;5009375;28;123110;-71
2021/06/27 09:38:21;;;;;;;11.80;8.65;;;;;;;29.58;43.35;101496.56;5003753;28;119539;-72
2021/06/27 09:41:30;;;;;;;11.80;8.73;;;;;;;29.63;43.70;101499.63;5002127;28;119050;-71
2021/06/27 09:44:04;;;;;;;12.82;9.45;;;;;;;29.73;43.51;101498.53;5001391;28;123922;-72
2021/06/27 09:46:38;;;;;;;10.32;8.38;;;;;;;29.78;43.23;101491.53;5003624;28;123932;-71
2021/06/27 09:49:09;;;;;;;12.75;8.48;;;;;;;29.80;42.76;101492.22;5004790;28;120062;-72
2021/06/27 09:51:41;;;;;;;11.48;8.45;;;;;;;29.80;43.15;101491.34;5000560;28;120065;-72
2021/06/27 09:54:13;;;;;;;10.98;8.30;;;;;;;29.82;42.68;101481.06;5009203;28;123466;-72
2021/06/27 09:56:41;;;;;;;10.48;8.55;;;;;;;29.84;42.74;101481.78;4990577;28;123901;-72
2021/06/27 09:59:10;;;;;;;10.45;8.05;;;;;;;29.83;42.66;101472.72;4989750;28;119656;-72
2021/06/27 10:01:39;;;;;;;13.00;8.50;;;;;;;29.84;42.77;101471.69;4991055;28;119039;-72
2021/06/27 10:04:13;;;;;;;9.82;7.93;;;;;;;29.83;42.72;101469.97;4987983;28;123993;-73
2021/06/27 10:06:49;;;;;;;9.38;7.40;;;;;;;29.84;42.22;101468.97;5010835;28;122799;-73
2021/06/27 10:09:22;;;;;;;9.57;7.78;;;;;;;29.81;41.58;101471.19;5003589;28;119509;-72
2021/06/27 10:12:06;;;;;;;10.55;8.30;;;;;;;29.80;41.79;101466.75;5009080;28;117837;-72
2021/06/27 10:14:51;;;;;;;8.93;6.90;;;;;;;29.80;41.92;101461.28;5007465;28;124098;-72
2021/06/27 10:17:19;;;;;;;;;;;;;;;29.83;42.50;101455.47;5008936;28;123947;-73
2021/06/27 10:19:47;;;;;;;9.27;7.40;;;;;;;29.93;42.04;101456.06;5008570;28;119849;-72
2021/06/27 10:22:14;;;;;;;9.27;7.40;;;;;;;29.98;42.00;101453.66;5009496;28;119118;-72
2021/06/27 10:24:42;;;;;;;8.85;7.20;;;;;;;30.06;41.82;101450.88;5007687;28;124864;-72
2021/06/27 10:27:10;;;;;;;9.68;6.95;;;;;;;30.16;42.04;101449.75;5006092;28;124365;-72
2021/06/27 10:29:42;;;;;;;11.10;7.82;;;;;;;30.27;42.24;101449.31;5004222;28;120069;-73
2021/06/27 10:32:11;;;;;;;9.60;7.82;;;;;;;30.36;41.56;101450.97;5020959;28;118590;-73
2021/06/27 10:34:38;;;;;;;9.20;7.80;;;;;;;30.42;41.12;101443.91;5013479;28;123354;-74
2021/06/27 10:37:23;;;;;;;9.13;7.20;;;;;;;30.41;40.97;101443.09;5019772;28;122841;-73
2021/06/27 10:39:57;;;;;;;9.02;7.45;;;;;;;30.47;41.02;101436.03;4995316;28;120495;-73
2021/06/27 10:42:47;;;;;;;8.27;6.85;;;;;;;30.52;41.64;101432.75;4992487;28;119961;-73
2021/06/27 10:45:40;;;;;;;10.45;7.65;;;;;;;30.60;41.51;101430.75;4998547;28;124363;-73
2021/06/27 10:48:32;;;;;;;10.65;8.27;;;;;;;30.62;40.77;101427.84;4997700;28;124125;-74
2021/06/27 10:51:02;;;;;;;9.57;8.20;;;;;;;30.59;40.63;101425.47;5019058;28;119662;-74
2021/06/27 10:53:29;;;;;;;11.18;8.57;;;;;;;30.59;40.48;101428.22;4999921;28;119065;-72
2021/06/27 10:55:59;;;;;;;8.85;7.10;;;;;;;30.59;41.13;101423.59;5001242;28;123892;-73
2021/06/27 10:58:37;;;;;;;11.63;7.97;;;;;;;30.63;41.21;101426.81;5004932;28;124540;-73
2021/06/27 11:01:09;;;;;;;9.15;7.50;;;;;;;30.69;41.01;101428.78;4996310;28;119320;-73
2021/06/27 11:03:45;;;;;;;10.15;7.28;;;;;;;30.71;40.80;101426.72;5003267;28;118409;-73
2021/06/27 11:06:12;;;;;;;9.77;8.15;;;;;;;30.71;40.04;101423.97;4991966;28;123802;-74
2021/06/27 11:08:42;;;;;;;9.10;7.60;;;;;;;30.66;40.08;101426.41;4991826;28;123858;-73
2021/06/27 11:11:16;;;;;;;8.60;7.22;;;;;;;30.61;40.34;101415.19;4996883;28;119453;-73
2021/06/27 11:14:15;;;;;;;8.10;6.72;;;;;;;30.60;40.25;101419.81;5000057;28;119034;-73